createdAt,value
2018-04-07T00:00:13.036Z,7.70
2018-04-07T00:02:41.224Z,7.70
2018-04-07T00:05:09.416Z,7.60
2018-04-07T00:07:36.838Z,7.60
2018-04-07T00:10:04.259Z,7.50
2018-04-07T00:12:31.699Z,7.50
2018-04-07T00:14:59.888Z,7.50
2018-04-07T00:17:28.081Z,7.50
2018-04-07T00:19:57.174Z,7.40
2018-04-07T00:22:25.342Z,7.40
2018-04-07T00:24:54.263Z,7.30
2018-04-07T00:27:22.462Z,7.30
2018-04-07T00:29:50.714Z,7.30
2018-04-07T00:32:18.119Z,7.20
2018-04-07T00:34:46.294Z,7.20
2018-04-07T00:37:14.477Z,7.10
2018-04-07T00:39:42.662Z,7.10
2018-04-07T00:42:10.838Z,7.10
2018-04-07T00:44:38.266Z,7.10
2018-04-07T00:47:05.682Z,7.10
2018-04-07T00:49:33.878Z,7.00
2018-04-07T00:52:02.075Z,7.00
2018-04-07T00:54:29.532Z,6.90
2018-04-07T00:56:58.544Z,6.90
2018-04-07T00:59:25.968Z,6.90
2018-04-07T01:01:53.374Z,6.90
2018-04-07T01:04:21.562Z,6.80
2018-04-07T01:06:49.734Z,6.80
2018-04-07T01:09:17.931Z,6.80
2018-04-07T01:11:45.339Z,6.80
2018-04-07T01:14:12.774Z,6.80
2018-04-07T01:16:40.942Z,6.70
2018-04-07T01:19:09.166Z,6.70
2018-04-07T01:21:36.569Z,6.70
2018-04-07T01:24:03.986Z,6.70
2018-04-07T01:26:31.402Z,6.60
2018-04-07T01:28:58.842Z,6.60
2018-04-07T01:31:26.252Z,6.60
2018-04-07T01:33:53.678Z,6.60
2018-04-07T01:36:21.111Z,6.60
2018-04-07T01:38:49.349Z,6.50
2018-04-07T01:41:16.751Z,6.50
2018-04-07T01:43:44.207Z,6.50
2018-04-07T01:46:11.677Z,6.50
2018-04-07T01:48:39.097Z,6.40
2018-04-07T01:51:06.512Z,6.50
2018-04-07T01:53:33.938Z,6.40
2018-04-07T01:56:01.387Z,6.40
2018-04-07T01:58:28.843Z,6.40
2018-04-07T02:00:56.428Z,6.30
2018-04-07T02:03:23.848Z,6.30
2018-04-07T02:05:51.259Z,6.30
2018-04-07T02:08:18.758Z,6.30
2018-04-07T02:10:46.201Z,6.30
2018-04-07T02:13:14.380Z,6.40
2018-04-07T02:15:42.567Z,6.40
2018-04-07T02:18:10.747Z,6.40
2018-04-07T02:20:38.936Z,6.40
2018-04-07T02:23:07.123Z,6.40
2018-04-07T02:25:35.307Z,6.40
2018-04-07T02:28:03.497Z,6.40
2018-04-07T02:30:31.691Z,6.40
2018-04-07T02:33:00.382Z,6.40
2018-04-07T02:35:27.734Z,6.30
2018-04-07T02:37:55.919Z,6.30
2018-04-07T02:40:23.384Z,6.30
2018-04-07T02:42:50.770Z,6.30
2018-04-07T02:45:18.949Z,6.30
2018-04-07T02:47:47.142Z,6.30
2018-04-07T02:50:15.372Z,6.30
2018-04-07T02:52:42.780Z,6.20
2018-04-07T02:55:10.396Z,6.20
2018-04-07T02:57:37.819Z,6.20
2018-04-07T03:00:05.258Z,6.20
2018-04-07T03:02:32.662Z,6.20
2018-04-07T03:05:00.983Z,6.10
2018-04-07T03:07:28.413Z,6.10
2018-04-07T03:09:55.874Z,6.10
2018-04-07T03:12:23.328Z,6.10
2018-04-07T03:14:50.759Z,6.10
2018-04-07T03:17:18.166Z,6.00
2018-04-07T03:19:45.603Z,6.10
2018-04-07T03:22:13.041Z,6.10
2018-04-07T03:24:40.487Z,6.10
2018-04-07T03:27:07.891Z,6.00
2018-04-07T03:29:35.322Z,6.00
2018-04-07T03:32:03.498Z,6.00
2018-04-07T03:34:30.966Z,6.00
2018-04-07T03:36:58.389Z,6.00
2018-04-07T03:39:25.825Z,6.00
2018-04-07T03:41:54.012Z,5.90
2018-04-07T03:44:21.431Z,5.90
2018-04-07T03:46:48.851Z,5.90
2018-04-07T03:49:17.062Z,5.80
2018-04-07T03:51:45.228Z,5.80
2018-04-07T03:54:12.635Z,5.70
2018-04-07T03:56:40.062Z,5.70
2018-04-07T03:59:08.242Z,5.70
2018-04-07T04:01:36.436Z,5.70
2018-04-07T04:04:05.586Z,5.70
2018-04-07T04:06:32.999Z,5.70
2018-04-07T04:09:01.353Z,5.70
2018-04-07T04:11:28.802Z,5.70
2018-04-07T04:13:56.218Z,5.70
2018-04-07T04:16:23.638Z,5.70
2018-04-07T04:18:51.050Z,5.70
2018-04-07T04:21:19.241Z,5.70
2018-04-07T04:23:46.670Z,5.70
2018-04-07T04:26:14.087Z,5.70
2018-04-07T04:28:41.508Z,5.60
2018-04-07T04:31:08.926Z,5.60
2018-04-07T04:33:37.114Z,5.70
2018-04-07T04:36:05.309Z,5.70
2018-04-07T04:38:32.715Z,5.60
2018-04-07T04:41:00.155Z,5.60
2018-04-07T04:43:28.334Z,5.60
2018-04-07T04:45:55.751Z,5.60
2018-04-07T04:48:23.186Z,5.60
2018-04-07T04:50:50.600Z,5.60
2018-04-07T04:53:18.016Z,5.60
2018-04-07T04:55:45.436Z,5.60
2018-04-07T04:58:12.867Z,5.50
2018-04-07T05:00:40.266Z,5.50
2018-04-07T05:03:07.678Z,5.40
2018-04-07T05:05:35.165Z,5.40
2018-04-07T05:08:02.594Z,5.40
2018-04-07T05:10:30.023Z,5.40
2018-04-07T05:12:57.446Z,5.40
2018-04-07T05:15:25.634Z,5.40
2018-04-07T05:17:53.825Z,5.40
2018-04-07T05:20:21.266Z,5.30
2018-04-07T05:22:48.687Z,5.40
2018-04-07T05:25:16.128Z,5.30
2018-04-07T05:27:44.297Z,5.40
2018-04-07T05:30:12.489Z,5.40
2018-04-07T05:32:40.683Z,5.40
2018-04-07T05:35:08.879Z,5.40
2018-04-07T05:37:36.295Z,5.40
2018-04-07T05:40:03.740Z,5.40
2018-04-07T05:42:31.225Z,5.40
2018-04-07T05:44:58.661Z,5.40
2018-04-07T05:47:26.097Z,5.40
2018-04-07T05:49:53.510Z,5.50
2018-04-07T05:52:20.934Z,5.50
2018-04-07T05:54:49.120Z,5.60
2018-04-07T05:57:17.352Z,5.70
2018-04-07T05:59:44.805Z,5.70
2018-04-07T06:02:12.231Z,5.80
2018-04-07T06:04:39.660Z,5.90
2018-04-07T06:07:07.085Z,6.00
2018-04-07T06:09:35.284Z,6.20
2018-04-07T06:12:03.297Z,6.20
2018-04-07T06:14:30.723Z,6.20
2018-04-07T06:16:58.922Z,6.40
2018-04-07T06:19:26.342Z,6.40
2018-04-07T06:21:53.762Z,6.40
2018-04-07T06:24:21.236Z,6.50
2018-04-07T06:26:48.655Z,6.60
2018-04-07T06:29:16.091Z,6.70
2018-04-07T06:31:43.519Z,6.90
2018-04-07T06:34:11.709Z,7.10
2018-04-07T06:36:39.902Z,7.10
2018-04-07T06:39:08.075Z,7.20
2018-04-07T06:41:36.245Z,7.20
2018-04-07T06:44:04.439Z,7.30
2018-04-07T06:46:33.550Z,7.30
2018-04-07T06:49:01.741Z,7.40
2018-04-07T06:51:29.930Z,7.40
2018-04-07T06:53:58.122Z,7.50
2018-04-07T06:56:26.294Z,7.60
2018-04-07T06:58:54.471Z,7.70
2018-04-07T07:01:21.908Z,7.70
2018-04-07T07:03:49.318Z,7.80
2018-04-07T07:06:17.539Z,8.10
2018-04-07T07:08:44.984Z,8.10
2018-04-07T07:11:12.380Z,8.20
2018-04-07T07:13:39.800Z,8.40
2018-04-07T07:16:07.224Z,8.50
2018-04-07T07:18:34.638Z,8.60
2018-04-07T07:21:02.866Z,8.70
2018-04-07T07:23:31.040Z,8.80
2018-04-07T07:25:58.469Z,8.80
2018-04-07T07:28:25.916Z,8.90
2018-04-07T07:30:53.342Z,9.00
2018-04-07T07:33:20.755Z,9.10
2018-04-07T07:35:48.182Z,9.10
2018-04-07T07:38:15.620Z,9.20
2018-04-07T07:40:43.802Z,9.40
2018-04-07T07:43:11.215Z,9.40
2018-04-07T07:45:38.670Z,9.50
2018-04-07T07:48:06.086Z,9.50
2018-04-07T07:50:34.422Z,9.50
2018-04-07T07:53:02.600Z,9.60
2018-04-07T07:55:30.793Z,9.60
2018-04-07T07:57:58.242Z,9.60
2018-04-07T08:00:25.676Z,9.70
2018-04-07T08:02:53.092Z,9.70
2018-04-07T08:05:21.328Z,9.90
2018-04-07T08:07:49.494Z,10.00
2018-04-07T08:10:16.910Z,10.00
2018-04-07T08:12:44.329Z,10.10
2018-04-07T08:15:11.755Z,10.20
2018-04-07T08:17:39.949Z,10.40
2018-04-07T08:20:08.133Z,10.50
2018-04-07T08:22:36.331Z,10.50
2018-04-07T08:25:05.451Z,10.60
2018-04-07T08:27:32.867Z,10.60
2018-04-07T08:30:00.297Z,10.70
2018-04-07T08:32:27.717Z,10.70
2018-04-07T08:34:55.142Z,10.70
2018-04-07T08:37:22.625Z,10.80
2018-04-07T08:39:50.046Z,10.90
2018-04-07T08:42:18.234Z,11.10
2018-04-07T08:44:46.422Z,11.10
2018-04-07T08:47:13.862Z,11.10
2018-04-07T08:49:41.310Z,11.20
2018-04-07T08:52:08.723Z,11.20
2018-04-07T08:54:36.941Z,11.50
2018-04-07T08:57:05.277Z,11.50
2018-04-07T08:59:33.458Z,11.80
2018-04-07T09:02:00.897Z,11.80
2018-04-07T09:04:28.401Z,12.00
2018-04-07T09:06:55.754Z,12.10
2018-04-07T09:09:23.166Z,12.20
2018-04-07T09:11:50.589Z,12.40
2018-04-07T09:14:19.520Z,12.60
2018-04-07T09:16:47.729Z,12.70
2018-04-07T09:19:15.147Z,12.70
2018-04-07T09:21:42.598Z,12.70
2018-04-07T09:24:10.034Z,12.70
2018-04-07T09:26:37.522Z,12.70
2018-04-07T09:29:06.499Z,13.00
2018-04-07T09:31:35.603Z,13.10
2018-04-07T09:34:03.047Z,13.10
2018-04-07T09:36:31.293Z,13.30
2018-04-07T09:38:58.708Z,13.30
2018-04-07T09:41:26.906Z,13.50
2018-04-07T09:43:54.343Z,13.40
2018-04-07T09:46:21.770Z,13.60
2018-04-07T09:48:49.219Z,13.60
2018-04-07T09:51:17.422Z,13.70
2018-04-07T09:53:44.884Z,13.70
2018-04-07T09:56:12.333Z,13.80
2018-04-07T09:58:40.512Z,13.80
2018-04-07T10:01:08.732Z,13.90
2018-04-07T10:03:36.163Z,13.90
2018-04-07T10:06:03.586Z,14.10
2018-04-07T10:08:31.586Z,14.20
2018-04-07T10:10:59.003Z,14.40
2018-04-07T10:13:26.494Z,14.40
2018-04-07T10:15:53.918Z,14.50
2018-04-07T10:18:22.123Z,14.60
2018-04-07T10:20:50.602Z,14.60
2018-04-07T10:23:18.798Z,14.70
2018-04-07T10:25:46.990Z,14.70
2018-04-07T10:28:14.428Z,14.70
2018-04-07T10:30:41.838Z,14.70
2018-04-07T10:33:09.263Z,14.90
2018-04-07T10:35:36.730Z,15.00
2018-04-07T10:38:05.566Z,15.10
2018-04-07T10:40:34.071Z,15.20
2018-04-07T10:43:01.516Z,15.30
2018-04-07T10:45:29.880Z,15.40
2018-04-07T10:47:57.312Z,15.40
2018-04-07T10:50:24.726Z,15.50
2018-04-07T10:52:52.179Z,15.50
2018-04-07T10:55:19.616Z,15.50
2018-04-07T10:57:47.057Z,15.70
2018-04-07T11:00:15.264Z,15.70
2018-04-07T11:02:42.689Z,15.70
2018-04-07T11:05:10.093Z,15.80
2018-04-07T11:07:37.562Z,15.90
2018-04-07T11:10:04.972Z,16.00
2018-04-07T11:12:32.418Z,16.10
2018-04-07T11:14:59.844Z,16.20
2018-04-07T11:17:28.038Z,16.20
2018-04-07T11:19:56.259Z,16.30
2018-04-07T11:22:23.687Z,16.30
2018-04-07T11:24:51.872Z,16.60
2018-04-07T11:27:20.062Z,16.70
2018-04-07T11:29:48.366Z,16.80
2018-04-07T11:32:16.566Z,16.90
2018-04-07T11:34:43.986Z,16.90
2018-04-07T11:37:11.410Z,17.00
2018-04-07T11:39:38.843Z,17.10
2018-04-07T11:42:07.191Z,17.10
2018-04-07T11:44:34.626Z,17.10
2018-04-07T11:47:02.073Z,17.30
2018-04-07T11:49:30.321Z,17.70
2018-04-07T11:51:58.503Z,17.90
2018-04-07T11:54:25.932Z,17.90
2018-04-07T11:56:53.393Z,18.20
2018-04-07T11:59:20.816Z,18.40
2018-04-07T12:01:48.213Z,18.80
2018-04-07T12:04:15.627Z,19.20
2018-04-07T12:06:43.046Z,19.60
2018-04-07T12:09:10.538Z,19.40
2018-04-07T12:11:37.976Z,19.80
2018-04-07T12:14:05.371Z,20.10
2018-04-07T12:16:32.906Z,20.50
2018-04-07T12:19:01.133Z,21.00
2018-04-07T12:21:28.581Z,21.00
2018-04-07T12:23:56.800Z,21.60
2018-04-07T12:26:24.249Z,21.60
2018-04-07T12:28:51.718Z,21.70
2018-04-07T12:31:19.138Z,22.20
2018-04-07T12:33:46.589Z,22.80
2018-04-07T12:36:14.012Z,23.80
2018-04-07T12:38:42.198Z,25.10
2018-04-07T12:41:09.624Z,25.10
2018-04-07T12:43:37.069Z,25.00
2018-04-07T12:46:04.515Z,25.80
2018-04-07T12:48:32.093Z,25.70
2018-04-07T12:50:59.578Z,25.90
2018-04-07T12:53:27.000Z,27.20
2018-04-07T12:55:55.186Z,28.80
2018-04-07T12:58:23.386Z,27.90
2018-04-07T13:00:50.818Z,27.90
2018-04-07T13:03:18.237Z,28.50
2018-04-07T13:05:45.707Z,27.60
2018-04-07T13:08:13.138Z,26.90
2018-04-07T13:10:41.336Z,27.90
2018-04-07T13:13:09.516Z,28.50
2018-04-07T13:15:38.762Z,28.70
2018-04-07T13:18:06.187Z,28.70
2018-04-07T13:20:34.394Z,27.90
2018-04-07T13:23:02.569Z,28.20
2018-04-07T13:25:30.002Z,28.10
2018-04-07T13:27:57.446Z,26.40
2018-04-07T13:30:24.900Z,25.80
2018-04-07T13:32:52.335Z,26.60
2018-04-07T13:35:19.850Z,26.50
2018-04-07T13:37:47.275Z,26.50
2018-04-07T13:40:15.503Z,26.60
2018-04-07T13:42:42.984Z,26.60
2018-04-07T13:45:10.407Z,25.30
2018-04-07T13:47:39.535Z,26.70
2018-04-07T13:50:06.959Z,26.60
2018-04-07T13:52:34.486Z,26.60
2018-04-07T13:55:01.934Z,26.90
2018-04-07T13:57:30.141Z,27.90
2018-04-07T13:59:57.604Z,27.90
2018-04-07T14:02:25.779Z,30.00
2018-04-07T14:04:53.202Z,29.90
2018-04-07T14:07:20.618Z,30.90
2018-04-07T14:09:48.038Z,28.80
2018-04-07T14:12:15.450Z,27.40
2018-04-07T14:14:42.890Z,26.50
2018-04-07T14:17:11.846Z,26.20
2018-04-07T14:19:40.437Z,25.80
2018-04-07T14:22:07.911Z,25.80
2018-04-07T14:24:35.346Z,26.20
2018-04-07T14:27:02.850Z,26.70
2018-04-07T14:29:30.294Z,27.20
2018-04-07T14:31:57.754Z,28.40
2018-04-07T14:34:25.240Z,28.70
2018-04-07T14:36:53.431Z,29.20
2018-04-07T14:39:20.908Z,29.20
2018-04-07T14:41:48.314Z,29.40
2018-04-07T14:44:15.755Z,29.80
2018-04-07T14:46:43.212Z,30.30
2018-04-07T14:49:10.688Z,31.10
2018-04-07T14:51:38.145Z,31.40
2018-04-07T14:54:05.610Z,31.40
2018-04-07T14:56:33.020Z,30.40
2018-04-07T14:59:00.485Z,28.20
2018-04-07T15:01:27.886Z,26.90
2018-04-07T15:03:56.076Z,27.90
2018-04-07T15:06:23.578Z,27.90
2018-04-07T15:08:51.010Z,27.50
2018-04-07T15:11:19.207Z,27.20
2018-04-07T15:13:47.408Z,27.60
2018-04-07T15:16:15.758Z,27.60
2018-04-07T15:18:43.161Z,26.80
2018-04-07T15:21:11.421Z,26.00
2018-04-07T15:23:38.894Z,26.00
2018-04-07T15:26:07.103Z,25.70
2018-04-07T15:28:34.594Z,25.60
2018-04-07T15:31:02.002Z,25.90
2018-04-07T15:33:29.422Z,25.80
2018-04-07T15:35:56.853Z,26.20
2018-04-07T15:38:25.045Z,26.80
2018-04-07T15:40:53.234Z,27.00
2018-04-07T15:43:21.459Z,27.90
2018-04-07T15:45:48.865Z,27.90
2018-04-07T15:48:16.291Z,27.40
2018-04-07T15:50:43.719Z,26.90
2018-04-07T15:53:11.938Z,26.90
2018-04-07T15:55:41.095Z,26.70
2018-04-07T15:58:08.512Z,26.60
2018-04-07T16:00:35.935Z,26.50
2018-04-07T16:03:03.370Z,26.60
2018-04-07T16:05:30.797Z,26.50
2018-04-07T16:07:58.237Z,26.50
2018-04-07T16:10:25.655Z,26.60
2018-04-07T16:12:54.236Z,25.80
2018-04-07T16:15:21.660Z,25.80
2018-04-07T16:17:49.195Z,26.00
2018-04-07T16:20:16.627Z,25.50
2018-04-07T16:22:44.867Z,24.90
2018-04-07T16:25:12.323Z,24.90
2018-04-07T16:27:39.793Z,25.20
2018-04-07T16:30:07.354Z,26.00
2018-04-07T16:32:35.585Z,25.30
2018-04-07T16:35:03.015Z,25.30
2018-04-07T16:37:30.446Z,25.50
2018-04-07T16:39:58.779Z,25.80
2018-04-07T16:42:26.221Z,25.80
2018-04-07T16:44:53.800Z,24.90
2018-04-07T16:47:21.223Z,24.30
2018-04-07T16:49:48.735Z,24.30
2018-04-07T16:52:16.159Z,24.50
2018-04-07T16:54:43.580Z,25.00
2018-04-07T16:57:12.490Z,24.60
2018-04-07T16:59:39.909Z,24.60
2018-04-07T17:02:07.379Z,24.70
2018-04-07T17:04:34.932Z,23.90
2018-04-07T17:07:02.374Z,22.90
2018-04-07T17:09:30.439Z,22.60
2018-04-07T17:11:57.941Z,22.30
2018-04-07T17:14:26.113Z,20.70
2018-04-07T17:16:53.613Z,20.70
2018-04-07T17:19:21.080Z,20.40
2018-04-07T17:21:48.504Z,20.10
2018-04-07T17:24:15.932Z,20.00
2018-04-07T17:26:43.386Z,19.80
2018-04-07T17:29:10.856Z,19.80
2018-04-07T17:31:38.312Z,19.60
2018-04-07T17:34:05.791Z,19.50
2018-04-07T17:36:33.298Z,19.50
2018-04-07T17:39:00.978Z,19.50
2018-04-07T17:41:29.295Z,19.30
2018-04-07T17:43:56.746Z,19.20
2018-04-07T17:46:24.265Z,19.10
2018-04-07T17:48:51.734Z,19.10
2018-04-07T17:51:19.160Z,19.00
2018-04-07T17:53:46.611Z,18.90
2018-04-07T17:56:14.875Z,18.80
2018-04-07T17:58:43.434Z,18.80
2018-04-07T18:01:10.934Z,18.80
2018-04-07T18:03:38.401Z,18.70
2018-04-07T18:06:06.544Z,18.70
2018-04-07T18:08:33.984Z,18.60
2018-04-07T18:11:02.214Z,18.60
2018-04-07T18:13:29.691Z,18.60
2018-04-07T18:15:57.158Z,18.50
2018-04-07T18:18:24.588Z,18.50
2018-04-07T18:20:52.061Z,18.40
2018-04-07T18:23:20.251Z,18.40
2018-04-07T18:25:47.815Z,18.40
2018-04-07T18:28:15.251Z,18.20
2018-04-07T18:30:43.989Z,18.10
2018-04-07T18:33:11.411Z,18.00
2018-04-07T18:35:38.835Z,18.00
2018-04-07T18:38:06.253Z,17.90
2018-04-07T18:40:33.714Z,17.80
2018-04-07T18:43:01.232Z,17.70
2018-04-07T18:45:28.895Z,17.70
2018-04-07T18:47:56.331Z,17.60
2018-04-07T18:50:23.838Z,17.60
2018-04-07T18:52:51.307Z,17.50
2018-04-07T18:55:19.498Z,17.40
2018-04-07T18:57:46.918Z,17.40
2018-04-07T19:00:14.346Z,17.30
2018-04-07T19:02:41.779Z,17.20
2018-04-07T19:05:09.954Z,17.10
2018-04-07T19:07:38.145Z,17.00
2018-04-07T19:10:06.321Z,16.90
2018-04-07T19:12:33.763Z,16.90
2018-04-07T19:15:01.192Z,16.90
2018-04-07T19:17:28.639Z,16.80
2018-04-07T19:19:56.079Z,16.80
2018-04-07T19:22:23.544Z,16.80
2018-04-07T19:24:50.986Z,16.80
2018-04-07T19:27:18.416Z,16.70
2018-04-07T19:29:45.852Z,16.70
2018-04-07T19:32:14.302Z,16.60
2018-04-07T19:34:41.730Z,16.60
2018-04-07T19:37:09.222Z,16.60
2018-04-07T19:39:36.655Z,16.60
2018-04-07T19:42:04.184Z,16.50
2018-04-07T19:44:31.667Z,16.50
2018-04-07T19:46:59.097Z,16.50
2018-04-07T19:49:26.591Z,16.50
2018-04-07T19:51:54.068Z,16.50
2018-04-07T19:54:21.562Z,16.50
2018-04-07T19:56:48.979Z,16.40
2018-04-07T19:59:16.402Z,16.50
2018-04-07T20:01:44.778Z,16.30
2018-04-07T20:04:12.215Z,16.20
2018-04-07T20:06:39.649Z,16.10
2018-04-07T20:09:07.127Z,16.10
2018-04-07T20:11:35.374Z,16.00
2018-04-07T20:14:02.847Z,16.00
2018-04-07T20:16:30.269Z,16.00
2018-04-07T20:18:57.742Z,15.90
2018-04-07T20:21:25.913Z,15.90
2018-04-07T20:23:54.087Z,15.90
2018-04-07T20:26:22.299Z,15.80
2018-04-07T20:28:50.490Z,15.80
2018-04-07T20:31:17.952Z,15.70
2018-04-07T20:33:45.372Z,15.70
2018-04-07T20:36:12.781Z,15.70
2018-04-07T20:38:40.213Z,15.70
2018-04-07T20:41:07.656Z,15.70
2018-04-07T20:43:35.112Z,15.60
2018-04-07T20:46:02.584Z,15.60
2018-04-07T20:48:29.997Z,15.50
2018-04-07T20:50:57.458Z,15.50
2018-04-07T20:53:24.982Z,15.50
2018-04-07T20:55:52.416Z,15.60
2018-04-07T20:58:19.927Z,15.50
2018-04-07T21:00:47.346Z,15.50
2018-04-07T21:03:16.474Z,15.50
2018-04-07T21:05:44.677Z,15.50
2018-04-07T21:08:12.095Z,15.50
2018-04-07T21:10:39.518Z,15.50
2018-04-07T21:13:06.948Z,15.40
2018-04-07T21:15:34.376Z,15.40
2018-04-07T21:18:01.824Z,15.40
2018-04-07T21:20:29.260Z,15.40
2018-04-07T21:22:57.445Z,15.30
2018-04-07T21:25:25.638Z,15.30
2018-04-07T21:27:53.858Z,15.30
2018-04-07T21:30:21.347Z,15.30
2018-04-07T21:32:49.614Z,15.20
2018-04-07T21:35:17.046Z,15.20
2018-04-07T21:37:46.171Z,15.20
2018-04-07T21:40:14.411Z,15.20
2018-04-07T21:42:41.948Z,15.10
2018-04-07T21:45:09.353Z,15.10
2018-04-07T21:47:36.792Z,15.10
2018-04-07T21:50:04.246Z,15.10
2018-04-07T21:52:31.698Z,15.00
2018-04-07T21:54:59.866Z,14.90
2018-04-07T21:57:28.163Z,14.80
2018-04-07T21:59:55.602Z,14.70
2018-04-07T22:02:24.686Z,14.70
2018-04-07T22:04:52.120Z,14.70
2018-04-07T22:07:20.322Z,14.70
2018-04-07T22:09:47.756Z,14.70
2018-04-07T22:12:16.876Z,14.70
2018-04-07T22:14:45.070Z,14.60
2018-04-07T22:17:12.565Z,14.60
2018-04-07T22:19:39.966Z,14.50
2018-04-07T22:22:07.438Z,14.40
2018-04-07T22:24:34.867Z,14.40
2018-04-07T22:27:02.347Z,14.30
2018-04-07T22:29:29.861Z,14.20
2018-04-07T22:31:57.282Z,14.10
2018-04-07T22:34:24.710Z,14.00
2018-04-07T22:36:52.898Z,13.80
2018-04-07T22:39:21.090Z,13.70
2018-04-07T22:41:48.513Z,13.70
2018-04-07T22:44:16.592Z,13.60
2018-04-07T22:46:44.006Z,13.70
2018-04-07T22:49:11.428Z,13.60
2018-04-07T22:51:38.898Z,13.60
2018-04-07T22:54:06.314Z,13.60
2018-04-07T22:56:34.502Z,13.60
2018-04-07T22:59:02.878Z,13.60
2018-04-07T23:01:30.306Z,13.50
2018-04-07T23:03:57.728Z,13.60
2018-04-07T23:06:25.147Z,13.50
2018-04-07T23:08:52.688Z,13.60
2018-04-07T23:11:20.118Z,13.60
2018-04-07T23:13:48.707Z,13.50
2018-04-07T23:16:17.826Z,13.50
2018-04-07T23:18:46.019Z,13.50
2018-04-07T23:21:14.209Z,13.50
2018-04-07T23:23:42.393Z,13.50
2018-04-07T23:26:09.814Z,13.40
2018-04-07T23:28:37.229Z,13.40
2018-04-07T23:31:04.661Z,13.40
2018-04-07T23:33:32.083Z,13.40
2018-04-07T23:35:59.517Z,13.30
2018-04-07T23:38:27.705Z,13.30
2018-04-07T23:40:55.901Z,13.30
2018-04-07T23:43:24.067Z,13.30
2018-04-07T23:45:52.263Z,13.30
2018-04-07T23:48:20.467Z,13.30
2018-04-07T23:50:49.358Z,13.30
2018-04-07T23:53:18.467Z,13.30
2018-04-07T23:55:46.665Z,13.40
2018-04-07T23:58:14.082Z,13.40
